JMS weather

La Huerta Airport
Cajeme, Sonora, Mexico

Public forecast

Using degrees Celsius for public forecast. Weather courtesy of forecast.io.

METAR (pilot weather report)

Closest report is Ciudad Obregón International Airport, 10.6 nm (19.7 km) ESE. Retrieved 2019/06/20 14:40 UTC (0 seconds ago):

MMCN 201440Z 23002KT 10SM SKC 28/13 A2985 RMK SLP109 HZY

TAF (pilot weather forecast)

Forecast is more than 6 hours old.

Closest forecast is Ciudad Obregón International Airport, 10.6 nm (19.7 km) ESE. Retrieved 2019/06/20 06:27 UTC (8 hours ago):

TAF MMCN 200520Z 2006/2106 23005KT P6SM SKC FM201900 22010KT P6SM SKC FM210300 23005KT P6SM SCT250